Time;durP1;ratioP1;P1;durP2;ratioP2;P2;SDS_P1;SDS_P2;PMS_P1;PMS_P2;Temp;Humidity;BMP_temperature;BMP_pressure;BME280_temperature;BME280_humidity;BME280_pressure;Samples;Min_cycle;Max_cycle;Signal;HPM_P1;HPM_P2
2022/09/13 00:02:20;;;;;;;4.20;3.80;;;;;;;;;;5070649;28;20203;-47
2022/09/13 00:04:47;;;;;;;4.60;4.10;;;;;;;;;;5070732;28;20207;-47
2022/09/13 00:07:13;;;;;;;5.53;3.97;;;;;;;;;;5070986;28;20212;-47
2022/09/13 00:09:39;;;;;;;5.03;3.93;;;;;;;;;;5071070;28;20193;-47
2022/09/13 00:12:05;;;;;;;5.10;3.60;;;;;;;;;;5070717;28;20196;-47
2022/09/13 00:14:31;;;;;;;5.03;4.20;;;;;;;;;;5070686;28;20195;-48
2022/09/13 00:16:57;;;;;;;5.17;3.97;;;;;;;;;;5070651;28;20553;-47
2022/09/13 00:19:23;;;;;;;5.63;4.30;;;;;;;;;;5070758;28;20206;-47
2022/09/13 00:21:51;;;;;;;4.33;3.93;;;;;;;;;;5070559;28;20202;-47
2022/09/13 00:24:17;;;;;;;4.70;4.30;;;;;;;;;;5070655;28;20203;-45
2022/09/13 00:26:43;;;;;;;4.00;3.70;;;;;;;;;;5070994;28;20195;-47
2022/09/13 00:29:09;;;;;;;6.07;4.03;;;;;;;;;;5070018;28;20310;-48
2022/09/13 00:31:35;;;;;;;4.00;3.70;;;;;;;;;;5069742;28;20666;-46
2022/09/13 00:34:01;;;;;;;4.17;3.80;;;;;;;;;;5070410;28;20204;-46
2022/09/13 00:36:27;;;;;;;5.20;4.27;;;;;;;;;;5069642;28;20259;-46
2022/09/13 00:38:54;;;;;;;4.27;3.87;;;;;;;;;;5070321;28;20204;-46
2022/09/13 00:41:21;;;;;;;4.23;3.77;;;;;;;;;;5070542;28;20219;-46
2022/09/13 00:43:48;;;;;;;3.97;3.67;;;;;;;;;;5070026;28;20211;-46
2022/09/13 00:46:17;;;;;;;4.03;3.63;;;;;;;;;;5073329;28;20294;-46
2022/09/13 00:48:45;;;;;;;4.30;3.90;;;;;;;;;;5074277;28;20191;-46
2022/09/13 00:51:11;;;;;;;4.90;4.10;;;;;;;;;;5074467;28;20218;-47
2022/09/13 00:53:39;;;;;;;4.73;3.67;;;;;;;;;;5074224;28;20693;-46
2022/09/13 00:56:08;;;;;;;5.57;4.23;;;;;;;;;;5073963;28;20277;-46
2022/09/13 00:58:38;;;;;;;4.77;3.87;;;;;;;;;;5074203;28;20210;-46
2022/09/13 01:01:06;;;;;;;4.27;3.87;;;;;;;;;;5073489;28;20235;-46
2022/09/13 01:03:33;;;;;;;5.47;4.17;;;;;;;;;;5073469;28;20210;-47
2022/09/13 01:06:01;;;;;;;4.60;4.20;;;;;;;;;;5073865;28;20184;-46
2022/09/13 01:08:31;;;;;;;5.03;4.20;;;;;;;;;;5073939;28;20222;-46
2022/09/13 01:10:58;;;;;;;4.77;4.30;;;;;;;;;;5074092;28;20206;-46
2022/09/13 01:13:27;;;;;;;3.97;3.63;;;;;;;;;;5073949;28;20271;-46
2022/09/13 01:15:53;;;;;;;4.30;3.90;;;;;;;;;;5073657;28;20323;-47
2022/09/13 01:18:20;;;;;;;4.37;4.00;;;;;;;;;;5069743;28;20203;-46
2022/09/13 01:20:56;;;;;;;6.77;4.07;;;;;;;;;;5073278;28;20200;-46
2022/09/13 01:23:30;;;;;;;4.37;3.80;;;;;;;;;;5073566;28;20857;-46
2022/09/13 01:26:23;;;;;;;4.60;4.20;;;;;;;;;;5073637;28;20197;-47
2022/09/13 01:28:59;;;;;;;4.07;3.67;;;;;;;;;;5073257;28;20199;-46
2022/09/13 01:31:31;;;;;;;5.60;4.00;;;;;;;;;;5073681;28;20199;-46
2022/09/13 01:34:03;;;;;;;4.00;3.60;;;;;;;;;;5072463;28;20203;-46
2022/09/13 01:36:38;;;;;;;3.90;3.50;;;;;;;;;;5073188;28;20636;-46
2022/09/13 01:39:05;;;;;;;4.00;3.60;;;;;;;;;;5073442;28;20196;-46
2022/09/13 01:41:44;;;;;;;4.20;3.80;;;;;;;;;;5073531;28;20322;-46
2022/09/13 01:44:13;;;;;;;3.77;3.40;;;;;;;;;;5073350;28;20268;-46
2022/09/13 01:46:46;;;;;;;4.50;3.67;;;;;;;;;;5073371;28;20191;-46
2022/09/13 01:49:16;;;;;;;4.13;3.83;;;;;;;;;;5073315;28;20599;-46
2022/09/13 01:51:45;;;;;;;3.90;3.60;;;;;;;;;;5073247;28;20245;-46
2022/09/13 01:54:15;;;;;;;4.23;3.93;;;;;;;;;;5072401;28;20199;-47
2022/09/13 01:56:44;;;;;;;4.20;3.40;;;;;;;;;;5071555;28;20613;-46
2022/09/13 01:59:13;;;;;;;4.93;4.13;;;;;;;;;;5073059;28;20210;-47
2022/09/13 02:01:42;;;;;;;4.73;4.23;;;;;;;;;;5072993;28;20289;-47
2022/09/13 02:04:12;;;;;;;4.57;4.17;;;;;;;;;;5073056;28;20195;-47
2022/09/13 02:06:41;;;;;;;4.70;4.30;;;;;;;;;;5072850;28;20669;-46
2022/09/13 02:09:09;;;;;;;4.67;4.27;;;;;;;;;;5069241;28;20201;-46
2022/09/13 02:11:37;;;;;;;4.87;4.30;;;;;;;;;;5072596;28;20295;-46
2022/09/13 02:14:06;;;;;;;4.97;4.47;;;;;;;;;;5072881;28;20199;-46
2022/09/13 02:16:34;;;;;;;7.03;4.90;;;;;;;;;;5072667;28;20586;-47
2022/09/13 02:19:02;;;;;;;4.87;4.33;;;;;;;;;;5073067;28;20223;-47
2022/09/13 02:21:32;;;;;;;4.70;4.30;;;;;;;;;;5072539;28;20227;-47
2022/09/13 02:24:00;;;;;;;4.97;4.53;;;;;;;;;;5072703;28;20212;-47
2022/09/13 02:26:27;;;;;;;6.23;5.17;;;;;;;;;;5072374;28;20254;-46
2022/09/13 02:28:55;;;;;;;7.17;5.40;;;;;;;;;;5072536;28;20200;-46
2022/09/13 02:31:25;;;;;;;6.30;5.70;;;;;;;;;;5072366;28;20206;-46
2022/09/13 02:33:53;;;;;;;6.27;5.17;;;;;;;;;;5072164;28;20200;-47
2022/09/13 02:36:21;;;;;;;6.80;6.10;;;;;;;;;;5071254;28;20277;-47
2022/09/13 02:38:51;;;;;;;6.17;5.60;;;;;;;;;;5072190;28;21072;-47
2022/09/13 02:41:19;;;;;;;7.20;6.50;;;;;;;;;;5072335;28;20294;-46
2022/09/13 02:43:47;;;;;;;7.30;6.43;;;;;;;;;;5072193;28;20231;-46
2022/09/13 02:46:21;;;;;;;7.70;6.90;;;;;;;;;;5071965;28;20200;-46
2022/09/13 02:48:51;;;;;;;8.57;6.40;;;;;;;;;;5072208;28;20624;-46
2022/09/13 02:51:20;;;;;;;7.17;6.30;;;;;;;;;;5071793;28;20200;-46
2022/09/13 02:53:50;;;;;;;10.10;6.43;;;;;;;;;;5071960;28;20202;-46
2022/09/13 02:56:20;;;;;;;7.33;6.63;;;;;;;;;;5071947;28;20308;-46
2022/09/13 02:58:50;;;;;;;8.03;6.40;;;;;;;;;;5071734;28;20704;-46
2022/09/13 03:01:16;;;;;;;7.97;7.27;;;;;;;;;;5071998;28;20235;-46
2022/09/13 03:03:43;;;;;;;8.07;7.27;;;;;;;;;;5071896;28;20202;-46
2022/09/13 03:06:09;;;;;;;8.20;7.40;;;;;;;;;;5071645;28;20198;-47
2022/09/13 03:08:36;;;;;;;8.30;7.30;;;;;;;;;;5071796;28;20219;-47
2022/09/13 03:11:08;;;;;;;7.57;6.87;;;;;;;;;;5071658;28;20199;-47
2022/09/13 03:13:40;;;;;;;8.70;7.10;;;;;;;;;;5071501;28;20192;-47
2022/09/13 03:16:14;;;;;;;8.00;7.30;;;;;;;;;;5071651;28;20276;-46
2022/09/13 03:18:49;;;;;;;8.70;7.90;;;;;;;;;;5071338;28;20233;-47
2022/09/13 03:21:23;;;;;;;7.03;6.33;;;;;;;;;;5071596;28;20286;-47
2022/09/13 03:23:55;;;;;;;8.20;7.40;;;;;;;;;;5071505;28;20942;-47
2022/09/13 03:26:26;;;;;;;7.97;7.23;;;;;;;;;;5071493;28;20192;-46
2022/09/13 03:29:01;;;;;;;8.20;7.23;;;;;;;;;;5071367;28;20286;-45
2022/09/13 03:31:31;;;;;;;7.93;7.10;;;;;;;;;;5071419;28;20199;-47
2022/09/13 03:33:58;;;;;;;8.03;7.23;;;;;;;;;;5071158;28;20662;-47
2022/09/13 03:36:27;;;;;;;8.00;7.17;;;;;;;;;;5071173;28;20235;-47
2022/09/13 03:38:56;;;;;;;8.37;7.47;;;;;;;;;;5070827;28;20203;-47
2022/09/13 03:41:24;;;;;;;7.83;7.03;;;;;;;;;;5070869;28;20269;-47
2022/09/13 03:43:52;;;;;;;8.37;7.50;;;;;;;;;;5071279;28;20785;-47
2022/09/13 03:46:22;;;;;;;7.97;7.23;;;;;;;;;;5071233;28;20684;-46
2022/09/13 03:48:49;;;;;;;9.03;7.80;;;;;;;;;;5071656;28;20203;-47
2022/09/13 03:51:15;;;;;;;8.13;7.37;;;;;;;;;;5070919;28;20741;-47
2022/09/13 03:53:43;;;;;;;9.53;7.67;;;;;;;;;;5070937;28;20631;-47
2022/09/13 03:56:12;;;;;;;8.23;7.37;;;;;;;;;;5070872;28;20360;-48
2022/09/13 03:58:38;;;;;;;8.17;7.37;;;;;;;;;;5070839;28;20196;-47
2022/09/13 04:01:05;;;;;;;7.97;7.23;;;;;;;;;;5070922;28;20243;-46
2022/09/13 04:03:32;;;;;;;7.93;7.13;;;;;;;;;;5070593;28;20282;-47
2022/09/13 04:05:58;;;;;;;8.03;7.23;;;;;;;;;;5070753;28;20211;-46
2022/09/13 04:08:24;;;;;;;8.83;8.03;;;;;;;;;;5070241;28;20218;-47
2022/09/13 04:10:53;;;;;;;11.30;7.77;;;;;;;;;;5070844;28;20617;-47
2022/09/13 04:13:21;;;;;;;8.80;7.93;;;;;;;;;;5070635;28;20277;-47
2022/09/13 04:15:47;;;;;;;10.07;7.67;;;;;;;;;;5070577;28;20606;-47
2022/09/13 04:18:13;;;;;;;8.53;7.73;;;;;;;;;;5070551;28;20670;-47
2022/09/13 04:20:41;;;;;;;8.53;7.73;;;;;;;;;;5070159;28;20196;-46
2022/09/13 04:23:07;;;;;;;9.80;8.03;;;;;;;;;;5070371;28;20576;-47
2022/09/13 04:25:33;;;;;;;8.47;7.43;;;;;;;;;;5070235;28;20249;-47
2022/09/13 04:27:59;;;;;;;7.50;6.80;;;;;;;;;;5070067;28;20207;-47
2022/09/13 04:30:25;;;;;;;7.70;6.77;;;;;;;;;;5070783;28;20300;-46
2022/09/13 04:32:52;;;;;;;8.23;7.40;;;;;;;;;;5070701;28;20249;-47
2022/09/13 04:35:18;;;;;;;8.90;8.00;;;;;;;;;;5070373;28;20223;-47
2022/09/13 04:37:46;;;;;;;8.47;7.67;;;;;;;;;;5070409;28;20207;-47
2022/09/13 04:40:13;;;;;;;10.63;8.07;;;;;;;;;;5070626;28;20282;-46
2022/09/13 04:42:39;;;;;;;8.00;7.30;;;;;;;;;;5070345;28;20223;-46
2022/09/13 04:45:05;;;;;;;8.10;7.30;;;;;;;;;;5070453;28;20232;-47
2022/09/13 04:47:32;;;;;;;7.40;6.60;;;;;;;;;;5070257;28;20196;-46
2022/09/13 04:49:58;;;;;;;7.70;6.90;;;;;;;;;;5070356;28;20199;-46
2022/09/13 04:52:24;;;;;;;7.67;6.97;;;;;;;;;;5070464;28;20249;-46
2022/09/13 04:54:51;;;;;;;7.37;6.67;;;;;;;;;;5070367;28;20204;-47
2022/09/13 04:57:17;;;;;;;7.43;6.73;;;;;;;;;;5070243;28;20219;-47
2022/09/13 04:59:43;;;;;;;9.50;8.27;;;;;;;;;;5070000;28;20195;-46
2022/09/13 05:02:09;;;;;;;10.73;8.93;;;;;;;;;;5070454;28;20195;-47
2022/09/13 05:04:35;;;;;;;9.07;8.17;;;;;;;;;;5070216;28;20192;-46
2022/09/13 05:07:01;;;;;;;8.43;7.73;;;;;;;;;;5068901;28;20213;-46
2022/09/13 05:09:28;;;;;;;9.20;8.27;;;;;;;;;;5069615;28;20278;-46
2022/09/13 05:11:55;;;;;;;9.77;8.87;;;;;;;;;;5068744;28;20196;-47
2022/09/13 05:14:21;;;;;;;9.40;8.50;;;;;;;;;;5069626;28;20229;-46
2022/09/13 05:17:00;;;;;;;10.00;9.10;;;;;;;;;;5069772;28;20698;-47
2022/09/13 05:19:26;;;;;;;8.73;7.97;;;;;;;;;;5068778;28;20253;-47
2022/09/13 05:21:52;;;;;;;9.93;8.90;;;;;;;;;;5068747;28;20721;-47
2022/09/13 05:24:18;;;;;;;10.37;9.37;;;;;;;;;;5069210;28;20708;-46
2022/09/13 05:26:44;;;;;;;8.70;7.90;;;;;;;;;;5070089;28;20203;-47
2022/09/13 05:29:12;;;;;;;10.27;9.27;;;;;;;;;;5069927;28;20191;-47
2022/09/13 05:31:39;;;;;;;10.57;9.47;;;;;;;;;;5069363;28;20294;-47
2022/09/13 05:34:09;;;;;;;11.27;10.17;;;;;;;;;;5073074;28;20199;-46
2022/09/13 05:36:35;;;;;;;10.43;9.27;;;;;;;;;;5072992;28;20250;-47
2022/09/13 05:39:02;;;;;;;10.10;9.07;;;;;;;;;;5072055;28;20283;-46
2022/09/13 05:41:27;;;;;;;11.20;9.47;;;;;;;;;;5072472;28;20199;-47
2022/09/13 05:43:53;;;;;;;10.93;9.83;;;;;;;;;;5072474;28;20253;-47
2022/09/13 05:46:21;;;;;;;10.77;9.67;;;;;;;;;;5072501;28;20278;-47
2022/09/13 05:48:48;;;;;;;11.23;10.13;;;;;;;;;;5072994;28;20203;-47
2022/09/13 05:51:15;;;;;;;12.60;9.93;;;;;;;;;;5073388;28;20203;-47
2022/09/13 05:53:42;;;;;;;10.73;9.63;;;;;;;;;;5072896;28;20203;-47
2022/09/13 05:56:08;;;;;;;10.40;9.40;;;;;;;;;;5073188;28;20223;-47
2022/09/13 05:58:38;;;;;;;12.00;10.83;;;;;;;;;;5072993;28;20195;-48
2022/09/13 06:01:04;;;;;;;11.80;10.57;;;;;;;;;;5072810;28;20724;-47
2022/09/13 06:03:31;;;;;;;9.70;8.73;;;;;;;;;;5072988;28;20256;-47
2022/09/13 06:05:57;;;;;;;10.80;9.80;;;;;;;;;;5072345;28;20195;-46
2022/09/13 06:08:23;;;;;;;11.67;10.57;;;;;;;;;;5072280;28;20623;-46
2022/09/13 06:10:53;;;;;;;11.10;9.87;;;;;;;;;;5072084;28;20286;-47
2022/09/13 06:13:19;;;;;;;11.07;10.03;;;;;;;;;;5071867;28;20196;-47
2022/09/13 06:15:45;;;;;;;12.70;11.40;;;;;;;;;;5072519;28;20591;-47
2022/09/13 06:18:11;;;;;;;11.10;10.03;;;;;;;;;;5072710;28;20257;-47
2022/09/13 06:20:38;;;;;;;10.30;9.30;;;;;;;;;;5072354;28;20191;-47
2022/09/13 06:23:04;;;;;;;9.70;8.70;;;;;;;;;;5072512;28;20199;-47
2022/09/13 06:25:30;;;;;;;10.97;9.70;;;;;;;;;;5071715;28;20203;-47
2022/09/13 06:27:56;;;;;;;9.40;8.57;;;;;;;;;;5071848;28;20199;-47
2022/09/13 06:30:22;;;;;;;9.57;8.43;;;;;;;;;;5072480;28;20292;-48
2022/09/13 06:32:48;;;;;;;9.37;8.47;;;;;;;;;;5072204;28;20722;-47
2022/09/13 06:35:15;;;;;;;10.73;9.37;;;;;;;;;;5072085;28;20207;-47
2022/09/13 06:37:42;;;;;;;11.20;9.53;;;;;;;;;;5071853;28;20203;-47
2022/09/13 06:40:09;;;;;;;11.40;10.20;;;;;;;;;;5072055;28;20759;-47
2022/09/13 06:42:35;;;;;;;11.20;9.87;;;;;;;;;;5071384;28;20223;-47
2022/09/13 06:45:01;;;;;;;12.90;10.80;;;;;;;;;;5072026;28;20215;-47
2022/09/13 06:47:27;;;;;;;13.27;11.93;;;;;;;;;;5072365;28;20196;-47
2022/09/13 06:49:53;;;;;;;13.37;12.00;;;;;;;;;;5072193;28;20199;-48
2022/09/13 06:52:19;;;;;;;12.83;11.33;;;;;;;;;;5071533;28;20203;-48
2022/09/13 06:54:46;;;;;;;12.43;11.13;;;;;;;;;;5070973;28;20662;-48
2022/09/13 06:57:12;;;;;;;13.27;11.97;;;;;;;;;;5071425;28;20266;-47
2022/09/13 06:59:38;;;;;;;13.83;12.30;;;;;;;;;;5071487;28;20678;-48
2022/09/13 07:02:04;;;;;;;12.67;11.27;;;;;;;;;;5071686;28;20206;-48
2022/09/13 07:04:30;;;;;;;15.67;13.17;;;;;;;;;;5071437;28;20520;-48
2022/09/13 07:06:57;;;;;;;12.67;11.33;;;;;;;;;;5070894;28;20216;-48
2022/09/13 07:09:23;;;;;;;14.20;12.73;;;;;;;;;;5071073;28;20191;-48
2022/09/13 07:11:52;;;;;;;15.20;12.63;;;;;;;;;;5071022;28;20199;-48
2022/09/13 07:14:19;;;;;;;13.73;12.37;;;;;;;;;;5070360;28;20206;-48
2022/09/13 07:16:45;;;;;;;15.70;13.70;;;;;;;;;;5070080;28;20716;-46
2022/09/13 07:19:13;;;;;;;16.03;14.43;;;;;;;;;;5071062;28;20202;-47
2022/09/13 07:21:39;;;;;;;16.07;14.37;;;;;;;;;;5071118;28;20195;-47
2022/09/13 07:24:05;;;;;;;19.57;15.23;;;;;;;;;;5071348;28;20256;-47
2022/09/13 07:26:31;;;;;;;16.73;13.37;;;;;;;;;;5070797;28;20234;-51
2022/09/13 07:29:00;;;;;;;15.03;13.53;;;;;;;;;;5071104;28;20188;-47
2022/09/13 07:31:27;;;;;;;15.03;13.47;;;;;;;;;;5071197;28;21226;-48
2022/09/13 07:33:54;;;;;;;14.43;13.03;;;;;;;;;;5071128;28;20220;-48
2022/09/13 07:36:20;;;;;;;13.47;12.07;;;;;;;;;;5070895;28;20227;-48
2022/09/13 07:38:47;;;;;;;14.77;12.27;;;;;;;;;;5070166;28;20241;-48
2022/09/13 07:41:14;;;;;;;13.97;12.60;;;;;;;;;;5070880;28;20563;-49
2022/09/13 07:43:40;;;;;;;14.13;12.73;;;;;;;;;;5070873;28;20219;-48
2022/09/13 07:46:08;;;;;;;16.43;13.67;;;;;;;;;;5071165;28;20199;-48
2022/09/13 07:48:35;;;;;;;17.10;15.30;;;;;;;;;;5070673;28;20204;-50
2022/09/13 07:51:02;;;;;;;14.10;12.73;;;;;;;;;;5070012;28;20286;-53
2022/09/13 07:53:28;;;;;;;16.87;15.17;;;;;;;;;;5068502;28;20207;-52
2022/09/13 07:55:54;;;;;;;14.73;13.00;;;;;;;;;;5067666;28;20228;-52
2022/09/13 07:58:20;;;;;;;18.63;16.73;;;;;;;;;;5068047;28;20195;-54
2022/09/13 08:00:46;;;;;;;16.63;14.97;;;;;;;;;;5070510;28;20527;-54
2022/09/13 08:03:13;;;;;;;15.57;13.87;;;;;;;;;;5070748;28;20206;-53
2022/09/13 08:05:39;;;;;;;19.53;16.60;;;;;;;;;;5069014;28;20208;-53
2022/09/13 08:08:06;;;;;;;19.63;16.83;;;;;;;;;;5070593;28;20220;-53
2022/09/13 08:10:32;;;;;;;19.07;16.97;;;;;;;;;;5070557;28;20195;-53
2022/09/13 08:12:58;;;;;;;18.90;16.77;;;;;;;;;;5070848;28;20208;-48
2022/09/13 08:15:24;;;;;;;18.03;16.20;;;;;;;;;;5070637;28;20199;-48
2022/09/13 08:17:50;;;;;;;20.43;15.67;;;;;;;;;;5070847;28;20217;-47
2022/09/13 08:20:17;;;;;;;17.97;15.53;;;;;;;;;;5069584;28;20195;-48
2022/09/13 08:22:43;;;;;;;17.40;15.17;;;;;;;;;;5070731;28;20212;-48
2022/09/13 08:25:09;;;;;;;16.27;14.60;;;;;;;;;;5070575;28;20200;-48
2022/09/13 08:27:35;;;;;;;17.67;15.73;;;;;;;;;;5070272;28;20195;-48
2022/09/13 08:30:02;;;;;;;18.13;16.13;;;;;;;;;;5070519;28;20192;-49
2022/09/13 08:32:28;;;;;;;18.47;16.30;;;;;;;;;;5070266;28;20244;-48
2022/09/13 08:34:54;;;;;;;18.17;16.17;;;;;;;;;;5070307;28;20781;-48
2022/09/13 08:37:21;;;;;;;15.77;14.17;;;;;;;;;;5070535;28;20228;-48
2022/09/13 08:39:47;;;;;;;18.97;16.90;;;;;;;;;;5070125;28;20199;-47
2022/09/13 08:42:19;;;;;;;18.87;17.03;;;;;;;;;;5068812;28;20689;-48
2022/09/13 08:44:47;;;;;;;17.70;15.97;;;;;;;;;;5069649;28;20219;-47
2022/09/13 08:47:24;;;;;;;20.60;18.40;;;;;;;;;;5069340;28;20291;-47
2022/09/13 08:49:51;;;;;;;18.67;16.77;;;;;;;;;;5070196;28;20204;-47
2022/09/13 08:52:24;;;;;;;17.63;14.80;;;;;;;;;;5070265;28;20196;-47
2022/09/13 08:54:52;;;;;;;19.33;17.40;;;;;;;;;;5069270;28;20204;-47
2022/09/13 08:57:21;;;;;;;21.10;19.00;;;;;;;;;;5069504;28;20738;-48
2022/09/13 08:59:52;;;;;;;24.10;18.50;;;;;;;;;;5069690;28;20323;-46
2022/09/13 09:02:24;;;;;;;19.23;17.27;;;;;;;;;;5070147;28;20720;-47
2022/09/13 09:04:52;;;;;;;19.03;17.13;;;;;;;;;;5069797;28;20205;-49
2022/09/13 09:07:20;;;;;;;19.33;17.40;;;;;;;;;;5072290;28;20221;-47
2022/09/13 09:09:51;;;;;;;18.77;16.87;;;;;;;;;;5073568;28;20224;-46
2022/09/13 09:12:22;;;;;;;18.30;16.40;;;;;;;;;;5073890;28;20208;-47
2022/09/13 09:14:56;;;;;;;16.63;15.03;;;;;;;;;;5073704;28;20205;-47
2022/09/13 09:17:24;;;;;;;14.97;13.50;;;;;;;;;;5073441;28;20769;-47
2022/09/13 09:19:54;;;;;;;16.67;14.97;;;;;;;;;;5073749;28;20206;-47
2022/09/13 09:22:21;;;;;;;13.57;12.17;;;;;;;;;;5073410;28;20650;-47
2022/09/13 09:24:50;;;;;;;14.53;13.13;;;;;;;;;;5072828;28;20216;-47
2022/09/13 09:27:17;;;;;;;15.90;14.30;;;;;;;;;;5073460;28;20206;-47
2022/09/13 09:29:45;;;;;;;14.60;13.10;;;;;;;;;;5073668;28;20211;-47
2022/09/13 09:32:17;;;;;;;12.93;11.67;;;;;;;;;;5071503;28;20206;-47
2022/09/13 09:34:50;;;;;;;14.47;13.17;;;;;;;;;;5073558;28;20201;-47
2022/09/13 09:37:19;;;;;;;13.77;12.37;;;;;;;;;;5068544;28;20299;-47
2022/09/13 09:39:46;;;;;;;14.57;13.23;;;;;;;;;;5073621;28;20281;-49
2022/09/13 09:42:16;;;;;;;12.77;11.57;;;;;;;;;;5073713;28;20203;-46
2022/09/13 09:44:43;;;;;;;13.73;12.33;;;;;;;;;;5073666;28;20441;-47
2022/09/13 09:47:11;;;;;;;14.77;13.27;;;;;;;;;;5073444;28;20256;-46
2022/09/13 09:52:27;;;;;;;14.80;13.50;;;;;;;;;;5073515;28;20243;-46
2022/09/13 09:54:56;;;;;;;12.30;11.00;;;;;;;;;;5073203;28;20676;-46
2022/09/13 09:57:43;;;;;;;11.87;10.77;;;;;;;;;;5073036;28;20305;-46
2022/09/13 10:00:11;;;;;;;12.90;11.63;;;;;;;;;;5072883;28;20703;-47
2022/09/13 10:02:42;;;;;;;9.67;8.77;;;;;;;;;;5073114;28;20209;-46
2022/09/13 10:05:09;;;;;;;12.17;11.00;;;;;;;;;;5073144;28;20661;-46
2022/09/13 10:07:35;;;;;;;12.80;10.47;;;;;;;;;;5073360;28;20285;-47
2022/09/13 10:10:03;;;;;;;11.40;10.40;;;;;;;;;;5073132;28;20251;-46
2022/09/13 10:12:32;;;;;;;10.60;9.50;;;;;;;;;;5073069;28;20686;-46
2022/09/13 10:15:03;;;;;;;10.40;9.50;;;;;;;;;;5073119;28;20306;-46
2022/09/13 10:17:29;;;;;;;11.63;9.83;;;;;;;;;;5072402;28;20276;-46
2022/09/13 10:19:57;;;;;;;10.50;9.50;;;;;;;;;;5072225;28;20299;-47
2022/09/13 10:22:23;;;;;;;9.70;8.80;;;;;;;;;;5070473;28;20232;-46
2022/09/13 10:24:50;;;;;;;10.80;9.17;;;;;;;;;;5072430;28;20206;-47
2022/09/13 10:27:25;;;;;;;9.23;8.27;;;;;;;;;;5072113;28;20714;-47
2022/09/13 10:29:55;;;;;;;8.70;7.80;;;;;;;;;;5071194;28;20205;-46
2022/09/13 10:32:21;;;;;;;9.03;8.13;;;;;;;;;;5071603;28;20222;-47
2022/09/13 10:34:49;;;;;;;11.73;9.73;;;;;;;;;;5071395;28;20241;-48
2022/09/13 10:37:18;;;;;;;11.37;8.93;;;;;;;;;;5072352;28;20245;-47
2022/09/13 10:39:52;;;;;;;8.50;7.60;;;;;;;;;;5072137;28;20565;-47
2022/09/13 10:42:20;;;;;;;7.50;6.80;;;;;;;;;;5071872;28;20285;-47
2022/09/13 10:44:52;;;;;;;7.10;6.40;;;;;;;;;;5070159;28;20203;-46
2022/09/13 10:47:21;;;;;;;6.60;6.00;;;;;;;;;;5070628;28;20192;-47
2022/09/13 10:49:48;;;;;;;12.23;6.37;;;;;;;;;;5071991;28;20202;-49
2022/09/13 10:52:24;;;;;;;7.30;6.60;;;;;;;;;;5072124;28;20206;-50
2022/09/13 10:54:50;;;;;;;7.10;6.40;;;;;;;;;;5071948;28;20339;-48
2022/09/13 10:57:28;;;;;;;7.37;6.67;;;;;;;;;;5071594;28;20229;-47
2022/09/13 10:59:54;;;;;;;7.53;5.63;;;;;;;;;;5066298;28;20252;-47
2022/09/13 11:02:28;;;;;;;3.63;2.80;;;;;;;;;;5069940;28;20197;-47
2022/09/13 11:05:06;;;;;;;5.50;2.63;;;;;;;;;;5071651;28;20199;-51
2022/09/13 11:07:39;;;;;;;2.77;2.30;;;;;;;;;;5071700;28;20222;-47
2022/09/13 11:10:09;;;;;;;5.83;2.53;;;;;;;;;;5067324;28;20653;-47
2022/09/13 11:12:40;;;;;;;4.37;2.27;;;;;;;;;;5071442;28;20205;-47
2022/09/13 11:15:14;;;;;;;4.83;2.23;;;;;;;;;;5071338;28;20202;-47
2022/09/13 11:17:55;;;;;;;4.30;2.30;;;;;;;;;;5071040;28;20233;-46
2022/09/13 11:20:27;;;;;;;3.70;1.73;;;;;;;;;;5071716;28;20252;-47
2022/09/13 11:23:12;;;;;;;3.43;1.80;;;;;;;;;;5071377;28;20843;-47
2022/09/13 11:25:43;;;;;;;2.80;1.87;;;;;;;;;;5069930;28;20198;-48
2022/09/13 11:28:13;;;;;;;4.33;1.70;;;;;;;;;;5071037;28;20237;-47
2022/09/13 11:30:48;;;;;;;5.87;1.83;;;;;;;;;;5070594;28;20281;-47
2022/09/13 11:33:23;;;;;;;5.00;1.93;;;;;;;;;;5067778;28;20651;-47
2022/09/13 11:35:54;;;;;;;2.37;1.47;;;;;;;;;;5070523;28;20201;-47
2022/09/13 11:38:27;;;;;;;4.83;2.10;;;;;;;;;;5070493;28;20207;-47
2022/09/13 11:40:57;;;;;;;5.10;1.50;;;;;;;;;;5071277;28;20276;-46
2022/09/13 11:43:34;;;;;;;5.10;1.87;;;;;;;;;;5071378;28;20199;-48
2022/09/13 11:46:07;;;;;;;4.67;1.70;;;;;;;;;;5071371;28;20198;-48
2022/09/13 11:48:44;;;;;;;3.87;1.50;;;;;;;;;;5071460;28;20248;-47
2022/09/13 11:51:17;;;;;;;2.10;1.40;;;;;;;;;;5071635;28;20554;-47
2022/09/13 11:53:52;;;;;;;4.10;1.90;;;;;;;;;;5071220;28;20289;-46
2022/09/13 11:56:21;;;;;;;3.77;1.40;;;;;;;;;;5071090;28;20306;-47
2022/09/13 11:58:49;;;;;;;2.97;1.70;;;;;;;;;;5071031;28;20677;-47
2022/09/13 12:01:19;;;;;;;3.20;1.67;;;;;;;;;;5071193;28;20237;-47
2022/09/13 12:03:50;;;;;;;4.37;1.40;;;;;;;;;;5071063;28;20212;-47
2022/09/13 12:06:19;;;;;;;4.20;1.60;;;;;;;;;;5070940;28;20204;-47
2022/09/13 12:08:47;;;;;;;2.87;1.40;;;;;;;;;;5070899;28;20219;-48
2022/09/13 12:11:18;;;;;;;2.13;1.37;;;;;;;;;;5071142;28;20604;-47
2022/09/13 12:13:46;;;;;;;3.37;1.50;;;;;;;;;;5070965;28;20688;-46
2022/09/13 12:16:15;;;;;;;3.20;1.37;;;;;;;;;;5070729;28;20697;-47
2022/09/13 12:18:43;;;;;;;3.10;1.40;;;;;;;;;;5070746;28;20662;-47
2022/09/13 12:21:12;;;;;;;5.03;1.47;;;;;;;;;;5071343;28;20208;-47
2022/09/13 12:23:41;;;;;;;4.77;1.57;;;;;;;;;;5070990;28;20292;-47
2022/09/13 12:26:09;;;;;;;3.23;1.40;;;;;;;;;;5070754;28;20255;-47
2022/09/13 12:28:37;;;;;;;4.70;1.40;;;;;;;;;;5070713;28;20197;-48
2022/09/13 12:31:06;;;;;;;2.73;1.30;;;;;;;;;;5070701;28;20737;-47
2022/09/13 12:33:33;;;;;;;3.60;1.50;;;;;;;;;;5070744;28;20226;-47
2022/09/13 12:36:07;;;;;;;5.30;1.43;;;;;;;;;;5070667;28;20350;-47
2022/09/13 12:38:42;;;;;;;3.67;1.40;;;;;;;;;;5070715;28;20208;-47
2022/09/13 12:41:13;;;;;;;3.33;1.50;;;;;;;;;;5071312;28;20205;-48
2022/09/13 12:43:50;;;;;;;3.20;1.47;;;;;;;;;;5074520;28;20317;-48
2022/09/13 12:46:49;;;;;;;3.27;1.33;;;;;;;;;;5074691;28;20533;-47
2022/09/13 12:49:22;;;;;;;3.63;1.30;;;;;;;;;;5012562;28;20212;-48
2022/09/13 12:52:00;;;;;;;2.53;1.30;;;;;;;;;;5012237;28;20578;-48
2022/09/13 12:54:40;;;;;;;2.70;1.17;;;;;;;;;;5047687;28;20218;-48
2022/09/13 12:57:14;;;;;;;3.17;1.53;;;;;;;;;;5074335;28;20229;-48
2022/09/13 12:59:44;;;;;;;6.30;1.50;;;;;;;;;;5074376;28;20214;-48
2022/09/13 13:02:23;;;;;;;3.73;1.47;;;;;;;;;;5074354;28;20678;-48
2022/09/13 13:04:53;;;;;;;3.37;1.43;;;;;;;;;;5074372;28;20336;-48
2022/09/13 13:07:21;;;;;;;3.03;1.50;;;;;;;;;;5074276;28;20576;-47
2022/09/13 13:09:52;;;;;;;3.03;1.30;;;;;;;;;;5074283;28;20242;-47
2022/09/13 13:12:26;;;;;;;4.97;1.40;;;;;;;;;;5074562;28;20325;-47
2022/09/13 13:14:52;;;;;;;2.57;1.20;;;;;;;;;;5074162;28;20240;-47
2022/09/13 13:17:37;;;;;;;2.90;1.30;;;;;;;;;;5074067;28;20706;-47
2022/09/13 13:20:18;;;;;;;1.33;0.97;;;;;;;;;;5073975;28;20195;-47
2022/09/13 13:22:51;;;;;;;3.40;1.23;;;;;;;;;;5073811;28;20203;-47
2022/09/13 13:25:32;;;;;;;2.03;1.10;;;;;;;;;;5073962;28;20230;-48
2022/09/13 13:27:58;;;;;;;4.13;1.40;;;;;;;;;;5073830;28;20583;-48
2022/09/13 13:30:50;;;;;;;2.33;1.10;;;;;;;;;;5073660;28;20740;-48
2022/09/13 13:33:18;;;;;;;5.77;1.50;;;;;;;;;;5073749;28;20195;-47
2022/09/13 13:35:44;;;;;;;1.77;1.10;;;;;;;;;;5073578;28;20205;-47
2022/09/13 13:38:14;;;;;;;2.53;1.20;;;;;;;;;;5073557;28;20201;-48
2022/09/13 13:40:41;;;;;;;3.93;1.20;;;;;;;;;;5073545;28;20238;-47
2022/09/13 13:43:29;;;;;;;3.07;1.27;;;;;;;;;;5073369;28;20610;-47
2022/09/13 13:45:59;;;;;;;1.87;1.10;;;;;;;;;;5071366;28;20201;-48
2022/09/13 13:48:35;;;;;;;2.07;1.13;;;;;;;;;;5073316;28;20209;-47
2022/09/13 13:51:21;;;;;;;2.43;1.00;;;;;;;;;;5070520;28;20271;-48
2022/09/13 13:53:50;;;;;;;2.40;1.10;;;;;;;;;;5071809;28;20774;-48
2022/09/13 13:56:31;;;;;;;1.73;0.97;;;;;;;;;;5070180;28;20229;-47
2022/09/13 13:59:02;;;;;;;2.00;0.90;;;;;;;;;;5070415;28;20198;-48
2022/09/13 14:01:31;;;;;;;2.57;1.10;;;;;;;;;;5072704;28;20241;-48
2022/09/13 14:04:15;;;;;;;3.50;0.97;;;;;;;;;;5072931;28;20205;-47
2022/09/13 14:06:45;;;;;;;4.10;1.10;;;;;;;;;;5072855;28;21267;-48
2022/09/13 14:09:19;;;;;;;2.43;1.10;;;;;;;;;;5072964;28;20198;-48
2022/09/13 14:11:51;;;;;;;2.53;0.97;;;;;;;;;;5072465;28;20198;-48
2022/09/13 14:14:38;;;;;;;2.40;1.00;;;;;;;;;;5073514;28;20293;-48
2022/09/13 14:17:22;;;;;;;2.53;1.00;;;;;;;;;;5067891;28;20700;-48
2022/09/13 14:19:49;;;;;;;1.97;1.00;;;;;;;;;;5072633;28;20665;-48
2022/09/13 14:22:17;;;;;;;2.57;1.40;;;;;;;;;;5072996;28;20210;-48
2022/09/13 14:24:45;;;;;;;1.87;1.03;;;;;;;;;;5073737;28;20296;-48
2022/09/13 14:27:16;;;;;;;3.63;1.10;;;;;;;;;;5072414;28;20591;-47
2022/09/13 14:29:44;;;;;;;4.30;1.07;;;;;;;;;;5071411;28;20232;-48
2022/09/13 14:32:14;;;;;;;2.73;1.43;;;;;;;;;;5071789;28;20573;-48
2022/09/13 14:34:49;;;;;;;1.90;1.10;;;;;;;;;;5072570;28;20289;-48
2022/09/13 14:37:17;;;;;;;3.63;1.20;;;;;;;;;;5072215;28;20221;-48
2022/09/13 14:39:53;;;;;;;2.33;1.17;;;;;;;;;;5072045;28;20566;-48
2022/09/13 14:42:19;;;;;;;2.43;1.00;;;;;;;;;;5068459;28;20199;-47
2022/09/13 14:44:45;;;;;;;3.93;1.40;;;;;;;;;;5070264;28;20200;-48
2022/09/13 14:47:16;;;;;;;6.27;1.27;;;;;;;;;;5072150;28;20319;-48
2022/09/13 14:49:45;;;;;;;1.67;0.80;;;;;;;;;;5072320;28;20223;-48
2022/09/13 14:52:16;;;;;;;4.00;1.30;;;;;;;;;;5072206;28;20212;-48